ALK119 VCBI-VRMG
Flight info
| Callsign | ALK119 |
|---|---|
| Flight time | 1h 32m |
| Altitude | 38000 |
| Route | LALUM DCT PADLA G454 DUKET |
| Aircraft | A20N/M-SDE2E3FGHIRWXY/LB1 |
Departure
| Time | 2026-05-06 15:47 |
|---|---|
| Airport | Bandaranaike International Colombo Airport (VCBI) |
Arrival
| Time | 2026-05-06 17:19 |
|---|---|
| Airport | Gan International Airport (VRMG) |
| Time | Latitude | Longitude | Altitude | Speed | Heading |
|---|---|---|---|---|---|
| 2026-05-06 15:33 | 7.17614 | 79.88567 | 27 ft | 0 kts | 217° |
| 2026-05-06 15:37 | 7.17645 | 79.88591 | 27 ft | 6 kts | 217° |
| 2026-05-06 15:37 | 7.17680 | 79.88618 | 27 ft | 5 kts | 217° |
| 2026-05-06 15:38 | 7.17696 | 79.88649 | 27 ft | 5 kts | 282° |
| 2026-05-06 15:38 | 7.17692 | 79.88661 | 27 ft | 0 kts | 300° |
| 2026-05-06 15:42 | 7.17703 | 79.88643 | 27 ft | 6 kts | 303° |
| 2026-05-06 15:42 | 7.17742 | 79.88589 | 27 ft | 12 kts | 305° |
| 2026-05-06 15:42 | 7.17804 | 79.88508 | 27 ft | 17 kts | 306° |
| 2026-05-06 15:42 | 7.17886 | 79.88434 | 27 ft | 13 kts | 354° |
| 2026-05-06 15:43 | 7.17922 | 79.88457 | 27 ft | 4 kts | 34° |
| 2026-05-06 15:43 | 7.17963 | 79.88485 | 27 ft | 11 kts | 36° |
| 2026-05-06 15:43 | 7.18039 | 79.88543 | 27 ft | 16 kts | 37° |
| 2026-05-06 15:43 | 7.18139 | 79.88618 | 27 ft | 19 kts | 35° |
| 2026-05-06 15:44 | 7.18254 | 79.88705 | 27 ft | 22 kts | 38° |
| 2026-05-06 15:44 | 7.18379 | 79.88803 | 27 ft | 24 kts | 37° |
| 2026-05-06 15:44 | 7.18481 | 79.88881 | 27 ft | 1 kts | 37° |
| 2026-05-06 15:45 | 7.18489 | 79.88886 | 27 ft | 4 kts | 37° |
| 2026-05-06 15:45 | 7.18530 | 79.88917 | 27 ft | 11 kts | 37° |
| 2026-05-06 15:45 | 7.18606 | 79.88948 | 28 ft | 13 kts | 343° |
| 2026-05-06 15:46 | 7.18671 | 79.88874 | 29 ft | 15 kts | 308° |
| 2026-05-06 15:46 | 7.18662 | 79.88791 | 29 ft | 15 kts | 219° |
| 2026-05-06 15:46 | 7.18386 | 79.88583 | 27 ft | 85 kts | 217° |
| 2026-05-06 15:46 | 7.17764 | 79.88108 | 30 ft | 140 kts | 217° |
| 2026-05-06 15:47 | 7.16902 | 79.87442 | 240 ft | 166 kts | 216° |
| 2026-05-06 15:47 | 7.15981 | 79.86717 | 777 ft | 167 kts | 216° |
| 2026-05-06 15:47 | 7.15072 | 79.86005 | 1444 ft | 164 kts | 216° |
| 2026-05-06 15:47 | 7.14161 | 79.85292 | 1968 ft | 173 kts | 216° |
| 2026-05-06 15:48 | 7.13148 | 79.84519 | 2330 ft | 195 kts | 216° |
| 2026-05-06 15:48 | 7.12001 | 79.83658 | 2784 ft | 217 kts | 216° |
| 2026-05-06 15:48 | 7.10733 | 79.82697 | 3373 ft | 239 kts | 218° |
| 2026-05-06 15:48 | 7.09542 | 79.81414 | 3965 ft | 262 kts | 230° |
| 2026-05-06 15:49 | 7.08403 | 79.79932 | 4798 ft | 271 kts | 232° |
| 2026-05-06 15:49 | 7.07261 | 79.78393 | 5741 ft | 278 kts | 232° |
| 2026-05-06 15:49 | 7.06087 | 79.76823 | 6640 ft | 284 kts | 232° |
| 2026-05-06 15:49 | 7.04881 | 79.75233 | 7563 ft | 287 kts | 232° |
| 2026-05-06 15:50 | 7.03656 | 79.73632 | 8475 ft | 291 kts | 232° |
| 2026-05-06 15:50 | 7.02408 | 79.72010 | 9375 ft | 295 kts | 232° |
| 2026-05-06 15:50 | 7.01141 | 79.70366 | 10237 ft | 299 kts | 232° |
| 2026-05-06 15:50 | 6.99826 | 79.68661 | 10695 ft | 319 kts | 232° |
| 2026-05-06 15:51 | 6.98416 | 79.66833 | 10985 ft | 342 kts | 232° |
| 2026-05-06 15:51 | 6.96933 | 79.64910 | 11600 ft | 350 kts | 232° |
| 2026-05-06 15:51 | 6.95435 | 79.62969 | 12443 ft | 352 kts | 232° |
| 2026-05-06 15:51 | 6.93925 | 79.61012 | 13232 ft | 356 kts | 232° |
| 2026-05-06 15:52 | 6.92398 | 79.59033 | 13971 ft | 360 kts | 232° |
| 2026-05-06 15:52 | 6.90854 | 79.57033 | 14649 ft | 364 kts | 232° |
| 2026-05-06 15:52 | 6.89294 | 79.55010 | 15328 ft | 367 kts | 232° |
| 2026-05-06 15:52 | 6.87719 | 79.52968 | 15983 ft | 371 kts | 233° |
| 2026-05-06 15:53 | 6.86129 | 79.50907 | 16616 ft | 375 kts | 233° |
| 2026-05-06 15:53 | 6.84522 | 79.48825 | 17245 ft | 379 kts | 233° |
| 2026-05-06 15:53 | 6.82898 | 79.46720 | 17868 ft | 382 kts | 233° |
| 2026-05-06 15:53 | 6.81257 | 79.44596 | 18426 ft | 386 kts | 233° |
| 2026-05-06 15:54 | 6.79600 | 79.42451 | 18943 ft | 390 kts | 233° |
| 2026-05-06 15:54 | 6.77931 | 79.40288 | 19471 ft | 393 kts | 233° |
| 2026-05-06 15:54 | 6.76250 | 79.38110 | 19984 ft | 396 kts | 233° |
| 2026-05-06 15:54 | 6.74551 | 79.35910 | 20510 ft | 400 kts | 233° |
| 2026-05-06 15:55 | 6.72839 | 79.33693 | 21019 ft | 403 kts | 233° |
| 2026-05-06 15:55 | 6.71107 | 79.31452 | 21520 ft | 407 kts | 233° |
| 2026-05-06 15:55 | 6.69364 | 79.29197 | 22024 ft | 410 kts | 233° |
| 2026-05-06 15:55 | 6.67607 | 79.26924 | 22520 ft | 414 kts | 233° |
| 2026-05-06 15:56 | 6.65835 | 79.24630 | 23021 ft | 417 kts | 233° |
| 2026-05-06 15:56 | 6.64045 | 79.22316 | 23485 ft | 420 kts | 233° |
| 2026-05-06 15:56 | 6.62246 | 79.19988 | 23888 ft | 423 kts | 233° |
| 2026-05-06 15:56 | 6.60430 | 79.17640 | 24302 ft | 426 kts | 233° |
| 2026-05-06 15:57 | 6.58606 | 79.15282 | 24695 ft | 429 kts | 233° |
| 2026-05-06 15:57 | 6.56766 | 79.12903 | 25094 ft | 432 kts | 233° |
| 2026-05-06 15:57 | 6.54916 | 79.10511 | 25471 ft | 435 kts | 233° |
| 2026-05-06 15:57 | 6.53053 | 79.08103 | 25839 ft | 438 kts | 233° |
| 2026-05-06 15:58 | 6.51178 | 79.05679 | 26205 ft | 441 kts | 233° |
| 2026-05-06 15:58 | 6.49315 | 79.03272 | 26553 ft | 443 kts | 233° |
| 2026-05-06 15:58 | 6.47388 | 79.00782 | 26902 ft | 447 kts | 233° |
| 2026-05-06 15:58 | 6.45476 | 78.98312 | 27231 ft | 449 kts | 232° |
| 2026-05-06 15:59 | 6.43550 | 78.95824 | 27569 ft | 452 kts | 232° |
| 2026-05-06 15:59 | 6.41611 | 78.93320 | 27892 ft | 455 kts | 232° |
| 2026-05-06 15:59 | 6.39663 | 78.90804 | 28202 ft | 458 kts | 232° |
| 2026-05-06 15:59 | 6.37696 | 78.88266 | 28498 ft | 461 kts | 232° |
| 2026-05-06 16:00 | 6.35723 | 78.85718 | 28821 ft | 463 kts | 232° |
| 2026-05-06 16:00 | 6.33737 | 78.83155 | 29095 ft | 467 kts | 232° |
| 2026-05-06 16:00 | 6.31762 | 78.80607 | 29375 ft | 469 kts | 232° |
| 2026-05-06 16:00 | 6.29752 | 78.78014 | 29678 ft | 472 kts | 232° |
| 2026-05-06 16:01 | 6.27730 | 78.75405 | 29924 ft | 475 kts | 232° |
| 2026-05-06 16:01 | 6.25696 | 78.72780 | 30187 ft | 477 kts | 232° |
| 2026-05-06 16:01 | 6.23655 | 78.70147 | 30484 ft | 478 kts | 232° |
| 2026-05-06 16:01 | 6.21604 | 78.67500 | 30741 ft | 481 kts | 232° |
| 2026-05-06 16:02 | 6.19546 | 78.64845 | 31053 ft | 482 kts | 232° |
| 2026-05-06 16:02 | 6.17491 | 78.62192 | 31448 ft | 480 kts | 232° |
| 2026-05-06 16:02 | 6.15442 | 78.59548 | 31855 ft | 479 kts | 231° |
| 2026-05-06 16:02 | 6.13400 | 78.56913 | 32255 ft | 477 kts | 231° |
| 2026-05-06 16:03 | 6.11346 | 78.54304 | 32655 ft | 475 kts | 230° |
| 2026-05-06 16:03 | 6.09282 | 78.51714 | 33029 ft | 474 kts | 230° |
| 2026-05-06 16:03 | 6.07223 | 78.49134 | 33401 ft | 473 kts | 230° |
| 2026-05-06 16:03 | 6.05169 | 78.46557 | 33747 ft | 472 kts | 230° |
| 2026-05-06 16:04 | 6.03125 | 78.43985 | 34056 ft | 471 kts | 230° |
| 2026-05-06 16:04 | 6.01080 | 78.41411 | 34330 ft | 471 kts | 230° |
| 2026-05-06 16:04 | 5.99037 | 78.38838 | 34602 ft | 470 kts | 230° |
| 2026-05-06 16:04 | 5.96999 | 78.36272 | 34865 ft | 470 kts | 230° |
| 2026-05-06 16:05 | 5.94963 | 78.33708 | 35134 ft | 470 kts | 230° |
| 2026-05-06 16:05 | 5.92926 | 78.31143 | 35403 ft | 469 kts | 230° |
| 2026-05-06 16:05 | 5.90891 | 78.28581 | 35676 ft | 469 kts | 230° |
| 2026-05-06 16:05 | 5.88858 | 78.26024 | 35966 ft | 468 kts | 230° |
| 2026-05-06 16:06 | 5.86831 | 78.23472 | 36248 ft | 468 kts | 230° |
| 2026-05-06 16:06 | 5.84804 | 78.20921 | 36521 ft | 467 kts | 230° |
| 2026-05-06 16:06 | 5.82776 | 78.18369 | 36804 ft | 467 kts | 229° |
| 2026-05-06 16:06 | 5.80753 | 78.15824 | 37076 ft | 466 kts | 229° |
| 2026-05-06 16:07 | 5.78733 | 78.13283 | 37345 ft | 465 kts | 229° |
| 2026-05-06 16:07 | 5.76717 | 78.10746 | 37607 ft | 465 kts | 229° |
| 2026-05-06 16:07 | 5.74568 | 78.08334 | 37837 ft | 462 kts | 220° |
| 2026-05-06 16:07 | 5.72051 | 78.06364 | 37867 ft | 458 kts | 211° |
| 2026-05-06 16:08 | 5.66762 | 78.02813 | 37864 ft | 457 kts | 211° |
| 2026-05-06 16:08 | 5.61461 | 77.99279 | 37861 ft | 457 kts | 211° |
| 2026-05-06 16:09 | 5.56160 | 77.95751 | 37860 ft | 457 kts | 211° |
| 2026-05-06 16:09 | 5.50862 | 77.92226 | 37864 ft | 457 kts | 211° |
| 2026-05-06 16:10 | 5.45561 | 77.88700 | 37866 ft | 457 kts | 211° |
| 2026-05-06 16:10 | 5.40260 | 77.85174 | 37866 ft | 457 kts | 211° |
| 2026-05-06 16:11 | 5.34992 | 77.81673 | 37863 ft | 457 kts | 211° |
| 2026-05-06 16:11 | 5.29654 | 77.78125 | 37861 ft | 457 kts | 211° |
| 2026-05-06 16:12 | 5.24355 | 77.74603 | 37865 ft | 457 kts | 211° |
| 2026-05-06 16:12 | 5.19052 | 77.71078 | 37865 ft | 457 kts | 211° |
| 2026-05-06 16:13 | 5.13751 | 77.67555 | 37865 ft | 457 kts | 211° |
| 2026-05-06 16:13 | 5.08453 | 77.64035 | 37862 ft | 457 kts | 211° |
| 2026-05-06 16:14 | 5.03148 | 77.60513 | 37866 ft | 457 kts | 211° |
| 2026-05-06 16:14 | 4.97873 | 77.57011 | 37867 ft | 457 kts | 211° |
| 2026-05-06 16:15 | 4.92575 | 77.53489 | 37865 ft | 457 kts | 211° |
| 2026-05-06 16:15 | 4.87286 | 77.49962 | 37864 ft | 457 kts | 212° |
| 2026-05-06 16:16 | 4.82009 | 77.46426 | 37860 ft | 456 kts | 212° |
| 2026-05-06 16:16 | 4.76707 | 77.42929 | 37857 ft | 456 kts | 210° |
| 2026-05-06 16:17 | 4.71394 | 77.39449 | 37853 ft | 456 kts | 211° |
| 2026-05-06 16:17 | 4.66092 | 77.35940 | 37857 ft | 456 kts | 211° |
| 2026-05-06 16:18 | 4.60798 | 77.32428 | 37852 ft | 457 kts | 211° |
| 2026-05-06 16:18 | 4.55496 | 77.28913 | 37855 ft | 457 kts | 211° |
| 2026-05-06 16:19 | 4.50185 | 77.25391 | 37852 ft | 457 kts | 211° |
| 2026-05-06 16:19 | 4.44893 | 77.21881 | 37855 ft | 458 kts | 211° |
| 2026-05-06 16:20 | 4.39579 | 77.18359 | 37856 ft | 458 kts | 211° |
| 2026-05-06 16:20 | 4.34263 | 77.14836 | 37854 ft | 459 kts | 211° |
| 2026-05-06 16:21 | 4.28936 | 77.11306 | 37857 ft | 459 kts | 211° |
| 2026-05-06 16:21 | 4.23608 | 77.07777 | 37854 ft | 459 kts | 211° |
| 2026-05-06 16:22 | 4.18272 | 77.04243 | 37859 ft | 460 kts | 211° |
| 2026-05-06 16:22 | 4.12933 | 77.00708 | 37861 ft | 460 kts | 211° |
| 2026-05-06 16:23 | 4.07590 | 76.97171 | 37863 ft | 461 kts | 211° |
| 2026-05-06 16:23 | 4.03143 | 76.94227 | 37862 ft | 461 kts | 211° |
| 2026-05-06 16:24 | 3.97792 | 76.90685 | 37867 ft | 461 kts | 211° |
| 2026-05-06 16:24 | 3.92432 | 76.87138 | 37868 ft | 461 kts | 211° |
| 2026-05-06 16:25 | 3.87078 | 76.83596 | 37868 ft | 462 kts | 211° |
| 2026-05-06 16:25 | 3.81717 | 76.80050 | 37867 ft | 462 kts | 212° |
| 2026-05-06 16:26 | 3.76356 | 76.76504 | 37867 ft | 462 kts | 212° |
| 2026-05-06 16:26 | 3.70995 | 76.72958 | 37862 ft | 462 kts | 211° |
| 2026-05-06 16:27 | 3.65700 | 76.69455 | 37863 ft | 453 kts | 212° |
| 2026-05-06 16:27 | 3.60424 | 76.65968 | 37865 ft | 455 kts | 212° |
| 2026-05-06 16:28 | 3.55140 | 76.62476 | 37863 ft | 455 kts | 212° |
| 2026-05-06 16:28 | 3.49855 | 76.58983 | 37865 ft | 455 kts | 212° |
| 2026-05-06 16:29 | 3.44570 | 76.55491 | 37864 ft | 455 kts | 212° |
| 2026-05-06 16:29 | 3.39278 | 76.51995 | 37867 ft | 456 kts | 212° |
| 2026-05-06 16:30 | 3.34878 | 76.49088 | 37864 ft | 456 kts | 212° |
| 2026-05-06 16:30 | 3.28683 | 76.44995 | 37868 ft | 457 kts | 212° |
| 2026-05-06 16:31 | 3.23377 | 76.41491 | 37866 ft | 457 kts | 212° |
| 2026-05-06 16:31 | 3.18062 | 76.37981 | 37863 ft | 458 kts | 212° |
| 2026-05-06 16:32 | 3.12739 | 76.34467 | 37865 ft | 459 kts | 212° |
| 2026-05-06 16:32 | 3.07411 | 76.30950 | 37865 ft | 459 kts | 212° |
| 2026-05-06 16:33 | 3.02112 | 76.27451 | 37866 ft | 460 kts | 212° |
| 2026-05-06 16:34 | 2.94092 | 76.22157 | 37870 ft | 461 kts | 212° |
| 2026-05-06 16:34 | 2.88742 | 76.18626 | 37872 ft | 461 kts | 212° |
| 2026-05-06 16:35 | 2.83382 | 76.15088 | 37876 ft | 461 kts | 212° |
| 2026-05-06 16:35 | 2.78024 | 76.11553 | 37878 ft | 461 kts | 212° |
| 2026-05-06 16:36 | 2.72678 | 76.08025 | 37864 ft | 459 kts | 212° |
| 2026-05-06 16:36 | 2.67355 | 76.04514 | 37868 ft | 459 kts | 212° |
| 2026-05-06 16:37 | 2.62031 | 76.01003 | 37866 ft | 458 kts | 212° |
| 2026-05-06 16:37 | 2.56715 | 75.97496 | 37867 ft | 457 kts | 211° |
| 2026-05-06 16:38 | 2.51405 | 75.93993 | 37868 ft | 457 kts | 211° |
| 2026-05-06 16:38 | 2.46099 | 75.90495 | 37869 ft | 456 kts | 211° |
| 2026-05-06 16:39 | 2.40804 | 75.87003 | 37869 ft | 456 kts | 211° |
| 2026-05-06 16:39 | 2.35518 | 75.83519 | 37867 ft | 455 kts | 211° |
| 2026-05-06 16:40 | 2.30236 | 75.80037 | 37871 ft | 454 kts | 212° |
| 2026-05-06 16:40 | 2.24964 | 75.76562 | 37869 ft | 454 kts | 212° |
| 2026-05-06 16:41 | 2.19697 | 75.73091 | 37868 ft | 453 kts | 212° |
| 2026-05-06 16:41 | 2.14440 | 75.69626 | 37868 ft | 452 kts | 212° |
| 2026-05-06 16:42 | 2.09191 | 75.66167 | 37869 ft | 452 kts | 212° |
| 2026-05-06 16:42 | 2.03948 | 75.62713 | 37868 ft | 451 kts | 212° |
| 2026-05-06 16:43 | 1.99029 | 75.58889 | 37865 ft | 451 kts | 220° |
| 2026-05-06 16:43 | 1.94286 | 75.54781 | 37860 ft | 451 kts | 219° |
| 2026-05-06 16:44 | 1.89536 | 75.50682 | 37861 ft | 451 kts | 219° |
| 2026-05-06 16:44 | 1.84791 | 75.46590 | 37858 ft | 451 kts | 219° |
| 2026-05-06 16:45 | 1.80044 | 75.42493 | 37858 ft | 451 kts | 219° |
| 2026-05-06 16:45 | 1.75301 | 75.38399 | 37856 ft | 451 kts | 219° |
| 2026-05-06 16:46 | 1.70549 | 75.34299 | 37855 ft | 451 kts | 219° |
| 2026-05-06 16:46 | 1.65796 | 75.30198 | 37854 ft | 452 kts | 219° |
| 2026-05-06 16:47 | 1.61035 | 75.26092 | 37856 ft | 452 kts | 219° |
| 2026-05-06 16:47 | 1.56266 | 75.21976 | 37862 ft | 453 kts | 219° |
| 2026-05-06 16:48 | 1.51487 | 75.17852 | 37867 ft | 454 kts | 219° |
| 2026-05-06 16:48 | 1.46708 | 75.13727 | 37876 ft | 455 kts | 219° |
| 2026-05-06 16:49 | 1.41916 | 75.09592 | 37875 ft | 455 kts | 219° |
| 2026-05-06 16:49 | 1.37144 | 75.05477 | 37871 ft | 452 kts | 219° |
| 2026-05-06 16:50 | 1.32388 | 75.01374 | 37871 ft | 452 kts | 219° |
| 2026-05-06 16:50 | 1.27635 | 74.97276 | 37873 ft | 451 kts | 219° |
| 2026-05-06 16:51 | 1.22889 | 74.93185 | 37870 ft | 450 kts | 219° |
| 2026-05-06 16:51 | 1.18148 | 74.89097 | 37869 ft | 450 kts | 219° |
| 2026-05-06 16:52 | 1.13409 | 74.85009 | 37868 ft | 450 kts | 219° |
| 2026-05-06 16:52 | 1.08672 | 74.80925 | 37864 ft | 450 kts | 219° |
| 2026-05-06 16:53 | 1.03937 | 74.76843 | 37859 ft | 450 kts | 219° |
| 2026-05-06 16:53 | 0.99200 | 74.72759 | 37860 ft | 450 kts | 219° |
| 2026-05-06 16:54 | 0.94458 | 74.68672 | 37862 ft | 450 kts | 219° |
| 2026-05-06 16:54 | 0.89714 | 74.64581 | 37862 ft | 451 kts | 219° |
| 2026-05-06 16:55 | 0.84962 | 74.60485 | 37861 ft | 452 kts | 220° |
| 2026-05-06 16:55 | 0.80201 | 74.56380 | 37859 ft | 453 kts | 219° |
| 2026-05-06 16:56 | 0.75423 | 74.52264 | 37861 ft | 454 kts | 219° |
| 2026-05-06 16:56 | 0.70638 | 74.48141 | 37861 ft | 455 kts | 220° |
| 2026-05-06 16:57 | 0.65833 | 74.44000 | 37556 ft | 456 kts | 219° |
| 2026-05-06 16:57 | 0.63435 | 74.41932 | 37302 ft | 455 kts | 220° |
| 2026-05-06 16:57 | 0.61037 | 74.39866 | 36760 ft | 457 kts | 220° |
| 2026-05-06 16:57 | 0.58623 | 74.37784 | 36017 ft | 459 kts | 220° |
| 2026-05-06 16:58 | 0.56197 | 74.35691 | 35124 ft | 464 kts | 220° |
| 2026-05-06 16:58 | 0.53747 | 74.33578 | 34264 ft | 466 kts | 220° |
| 2026-05-06 16:58 | 0.51295 | 74.31463 | 33347 ft | 463 kts | 220° |
| 2026-05-06 16:58 | 0.48879 | 74.29379 | 32572 ft | 454 kts | 220° |
| 2026-05-06 16:59 | 0.46503 | 74.27329 | 31700 ft | 449 kts | 220° |
| 2026-05-06 16:59 | 0.44150 | 74.25301 | 30827 ft | 444 kts | 220° |
| 2026-05-06 16:59 | 0.41828 | 74.23300 | 30230 ft | 441 kts | 220° |
| 2026-05-06 16:59 | 0.39457 | 74.21258 | 29750 ft | 458 kts | 220° |
| 2026-05-06 17:00 | 0.37063 | 74.19195 | 29231 ft | 462 kts | 220° |
| 2026-05-06 17:00 | 0.34623 | 74.17094 | 28400 ft | 465 kts | 221° |
| 2026-05-06 17:00 | 0.32149 | 74.14963 | 27737 ft | 462 kts | 221° |
| 2026-05-06 17:00 | 0.29726 | 74.12876 | 27093 ft | 457 kts | 221° |
| 2026-05-06 17:01 | 0.27363 | 74.10841 | 26423 ft | 453 kts | 221° |
| 2026-05-06 17:01 | 0.24959 | 74.08770 | 25762 ft | 449 kts | 221° |
| 2026-05-06 17:01 | 0.22606 | 74.06744 | 25128 ft | 445 kts | 221° |
| 2026-05-06 17:01 | 0.20270 | 74.04732 | 24507 ft | 442 kts | 222° |
| 2026-05-06 17:02 | 0.17947 | 74.02732 | 23873 ft | 439 kts | 222° |
| 2026-05-06 17:02 | 0.15667 | 74.00768 | 23179 ft | 437 kts | 222° |
| 2026-05-06 17:02 | 0.13366 | 73.98785 | 22499 ft | 424 kts | 222° |
| 2026-05-06 17:02 | 0.11204 | 73.96923 | 21954 ft | 409 kts | 222° |
| 2026-05-06 17:03 | 0.09060 | 73.95075 | 21353 ft | 405 kts | 223° |
| 2026-05-06 17:03 | 0.06940 | 73.93248 | 20734 ft | 402 kts | 223° |
| 2026-05-06 17:03 | 0.04834 | 73.91434 | 20136 ft | 398 kts | 223° |
| 2026-05-06 17:03 | 0.02742 | 73.89627 | 19545 ft | 395 kts | 223° |
| 2026-05-06 17:04 | 0.00666 | 73.87834 | 18951 ft | 392 kts | 223° |
| 2026-05-06 17:04 | -0.01391 | 73.86058 | 18353 ft | 389 kts | 223° |
| 2026-05-06 17:04 | -0.03436 | 73.84295 | 17726 ft | 386 kts | 223° |
| 2026-05-06 17:04 | -0.05452 | 73.82557 | 17133 ft | 380 kts | 223° |
| 2026-05-06 17:05 | -0.07441 | 73.80844 | 16560 ft | 375 kts | 223° |
| 2026-05-06 17:05 | -0.09409 | 73.79151 | 15992 ft | 371 kts | 223° |
| 2026-05-06 17:05 | -0.11353 | 73.77476 | 15397 ft | 368 kts | 223° |
| 2026-05-06 17:05 | -0.13282 | 73.75814 | 14814 ft | 365 kts | 224° |
| 2026-05-06 17:06 | -0.15192 | 73.74165 | 14282 ft | 361 kts | 224° |
| 2026-05-06 17:06 | -0.17085 | 73.72529 | 13735 ft | 358 kts | 224° |
| 2026-05-06 17:06 | -0.18962 | 73.70909 | 13137 ft | 354 kts | 224° |
| 2026-05-06 17:06 | -0.20813 | 73.69313 | 12617 ft | 349 kts | 224° |
| 2026-05-06 17:07 | -0.22626 | 73.67751 | 12180 ft | 339 kts | 224° |
| 2026-05-06 17:07 | -0.24379 | 73.66241 | 11689 ft | 329 kts | 224° |
| 2026-05-06 17:07 | -0.26106 | 73.64753 | 11171 ft | 327 kts | 224° |
| 2026-05-06 17:07 | -0.27822 | 73.63274 | 10675 ft | 324 kts | 224° |
| 2026-05-06 17:08 | -0.29530 | 73.61808 | 10214 ft | 321 kts | 224° |
| 2026-05-06 17:08 | -0.31186 | 73.60389 | 10086 ft | 306 kts | 224° |
| 2026-05-06 17:08 | -0.32765 | 73.59034 | 9975 ft | 292 kts | 224° |
| 2026-05-06 17:08 | -0.34283 | 73.57727 | 9708 ft | 285 kts | 224° |
| 2026-05-06 17:09 | -0.35762 | 73.56450 | 9511 ft | 276 kts | 224° |
| 2026-05-06 17:09 | -0.36726 | 73.55616 | 9327 ft | 278 kts | 224° |
| 2026-05-06 17:09 | -0.38186 | 73.54354 | 8958 ft | 277 kts | 224° |
| 2026-05-06 17:09 | -0.39641 | 73.53096 | 8595 ft | 276 kts | 224° |
| 2026-05-06 17:10 | -0.41570 | 73.51431 | 8100 ft | 272 kts | 224° |
| 2026-05-06 17:10 | -0.42995 | 73.50199 | 7735 ft | 270 kts | 224° |
| 2026-05-06 17:10 | -0.43936 | 73.49387 | 7489 ft | 269 kts | 224° |
| 2026-05-06 17:10 | -0.45347 | 73.48168 | 7128 ft | 268 kts | 224° |
| 2026-05-06 17:11 | -0.46752 | 73.46957 | 6763 ft | 266 kts | 224° |
| 2026-05-06 17:11 | -0.48154 | 73.45750 | 6407 ft | 265 kts | 224° |
| 2026-05-06 17:11 | -0.49548 | 73.44547 | 6034 ft | 264 kts | 224° |
| 2026-05-06 17:11 | -0.50934 | 73.43353 | 5670 ft | 262 kts | 224° |
| 2026-05-06 17:12 | -0.52310 | 73.42166 | 5314 ft | 261 kts | 224° |
| 2026-05-06 17:12 | -0.53680 | 73.40985 | 4959 ft | 259 kts | 224° |
| 2026-05-06 17:12 | -0.55036 | 73.39816 | 4602 ft | 254 kts | 224° |
| 2026-05-06 17:12 | -0.56354 | 73.38681 | 4257 ft | 246 kts | 224° |
| 2026-05-06 17:13 | -0.57627 | 73.37584 | 3925 ft | 238 kts | 224° |
| 2026-05-06 17:13 | -0.58918 | 73.36468 | 3593 ft | 264 kts | 224° |
| 2026-05-06 17:13 | -0.60351 | 73.35221 | 3433 ft | 277 kts | 223° |
| 2026-05-06 17:13 | -0.61793 | 73.33980 | 3367 ft | 269 kts | 224° |
| 2026-05-06 17:14 | -0.63274 | 73.32885 | 3060 ft | 265 kts | 211° |
| 2026-05-06 17:14 | -0.65025 | 73.32276 | 2705 ft | 269 kts | 193° |
| 2026-05-06 17:14 | -0.66884 | 73.32007 | 2266 ft | 271 kts | 192° |
| 2026-05-06 17:14 | -0.68731 | 73.31722 | 2001 ft | 262 kts | 197° |
| 2026-05-06 17:15 | -0.70293 | 73.30974 | 1890 ft | 242 kts | 224° |
| 2026-05-06 17:15 | -0.71197 | 73.29676 | 1764 ft | 219 kts | 255° |
| 2026-05-06 17:15 | -0.71273 | 73.28245 | 1632 ft | 199 kts | 279° |
| 2026-05-06 17:15 | -0.71066 | 73.26952 | 1621 ft | 177 kts | 278° |
| 2026-05-06 17:16 | -0.70892 | 73.25831 | 1592 ft | 148 kts | 278° |
| 2026-05-06 17:16 | -0.70755 | 73.24903 | 1622 ft | 124 kts | 279° |
| 2026-05-06 17:16 | -0.70634 | 73.24076 | 1595 ft | 119 kts | 279° |
| 2026-05-06 17:16 | -0.70508 | 73.23246 | 1610 ft | 121 kts | 279° |
| 2026-05-06 17:17 | -0.70378 | 73.22421 | 1596 ft | 119 kts | 278° |
| 2026-05-06 17:17 | -0.70251 | 73.21598 | 1611 ft | 122 kts | 278° |
| 2026-05-06 17:17 | -0.70118 | 73.20760 | 1556 ft | 122 kts | 278° |
| 2026-05-06 17:17 | -0.70013 | 73.19915 | 1343 ft | 122 kts | 278° |
| 2026-05-06 17:18 | -0.69817 | 73.19096 | 1070 ft | 121 kts | 270° |
| 2026-05-06 17:18 | -0.69724 | 73.18243 | 777 ft | 125 kts | 274° |
| 2026-05-06 17:18 | -0.69600 | 73.17371 | 349 ft | 130 kts | 269° |
| 2026-05-06 17:18 | -0.69463 | 73.16496 | 30 ft | 121 kts | 265° |
| 2026-05-06 17:19 | -0.69365 | 73.15826 | 14 ft | 69 kts | 279° |
| 2026-05-06 17:19 | -0.69314 | 73.15577 | 15 ft | 16 kts | 324° |
| 2026-05-06 17:19 | -0.69244 | 73.15582 | 15 ft | 12 kts | 10° |
| 2026-05-06 17:19 | -0.69157 | 73.15599 | 16 ft | 14 kts | 11° |
| 2026-05-06 17:20 | -0.69110 | 73.15608 | 16 ft | 0 kts | 11° |
| 2026-05-06 17:20 | -0.69109 | 73.15609 | 16 ft | 1 kts | 12° |
| 2026-05-06 17:21 | -0.69087 | 73.15617 | 17 ft | 6 kts | 24° |
| 2026-05-06 17:21 | -0.69070 | 73.15641 | 16 ft | 3 kts | 90° |
| 2026-05-06 17:21 | -0.69074 | 73.15679 | 16 ft | 9 kts | 98° |
| 2026-05-06 17:21 | -0.69105 | 73.15751 | 16 ft | 13 kts | 116° |
| 2026-05-06 17:22 | -0.69131 | 73.15822 | 18 ft | 0 kts | 104° |
| 2026-05-06 17:22 | -0.69131 | 73.15823 | 18 ft | 0 kts | 100° |
| 2026-05-06 17:22 | -0.69115 | 73.15851 | 16 ft | 5 kts | 21° |
| 2026-05-06 17:22 | -0.69111 | 73.15850 | 16 ft | 0 kts | 358° |